createdAt,value
2017-09-05T00:03:45.556Z,0
2017-09-05T00:08:50.289Z,0
2017-09-05T00:13:54.696Z,0
2017-09-05T00:19:00.442Z,0
2017-09-05T00:24:05.520Z,0
2017-09-05T00:29:10.597Z,0
2017-09-05T00:34:16.001Z,0
2017-09-05T00:39:21.752Z,0
2017-09-05T00:44:26.505Z,0
2017-09-05T00:49:31.576Z,0
2017-09-05T00:54:36.656Z,0
2017-09-05T00:59:41.053Z,0
2017-09-05T01:04:46.465Z,0
2017-09-05T01:09:51.875Z,0
2017-09-05T01:14:56.957Z,0
2017-09-05T01:20:01.690Z,0
2017-09-05T01:25:07.097Z,0
2017-09-05T01:30:11.833Z,0
2017-09-05T01:35:16.904Z,0
2017-09-05T01:40:21.972Z,0
2017-09-05T01:45:27.041Z,0
2017-09-05T01:50:31.775Z,0
2017-09-05T01:55:37.173Z,0
2017-09-05T02:00:42.908Z,0
2017-09-05T02:05:47.976Z,0
2017-09-05T02:10:53.041Z,0
2017-09-05T02:15:58.775Z,0
2017-09-05T02:21:04.848Z,0
2017-09-05T02:26:10.924Z,0
2017-09-05T02:31:16.323Z,0
2017-09-05T02:36:22.059Z,0
2017-09-05T02:41:27.805Z,0
2017-09-05T02:46:32.872Z,0
2017-09-05T02:51:38.273Z,0
2017-09-05T02:56:43.339Z,0
2017-09-05T03:01:47.734Z,0
2017-09-05T03:06:53.140Z,0
2017-09-05T03:11:58.212Z,0
2017-09-05T03:17:03.277Z,0
2017-09-05T03:22:08.341Z,0
2017-09-05T03:27:13.426Z,0
2017-09-05T03:32:19.491Z,0
2017-09-05T03:37:24.558Z,0
2017-09-05T03:42:29.290Z,0
2017-09-05T03:47:35.358Z,0
2017-09-05T03:52:40.427Z,0
2017-09-05T03:57:46.499Z,0
2017-09-05T04:02:51.577Z,0
2017-09-05T04:07:57.639Z,1
2017-09-05T04:13:03.037Z,1
2017-09-05T04:18:08.437Z,1
2017-09-05T04:23:13.168Z,3
2017-09-05T04:28:18.239Z,6
2017-09-05T04:33:24.309Z,11
2017-09-05T04:38:29.047Z,23
2017-09-05T04:43:34.122Z,38
2017-09-05T04:48:39.912Z,58
2017-09-05T04:53:45.649Z,81
2017-09-05T04:58:50.720Z,110
2017-09-05T05:03:56.123Z,144
2017-09-05T05:09:01.862Z,178
2017-09-05T05:14:07.948Z,215
2017-09-05T05:19:13.355Z,283
2017-09-05T05:24:18.422Z,331
2017-09-05T05:29:23.488Z,392
2017-09-05T05:34:28.894Z,472
2017-09-05T05:39:33.977Z,554
2017-09-05T05:44:39.047Z,670
2017-09-05T05:49:44.449Z,723
2017-09-05T05:54:49.850Z,891
2017-09-05T05:59:54.582Z,973
2017-09-05T06:04:59.652Z,1120
2017-09-05T06:10:05.387Z,1278
2017-09-05T06:15:10.792Z,1432
2017-09-05T06:20:15.864Z,1553
2017-09-05T06:25:20.606Z,1715
2017-09-05T06:30:26.679Z,1903
2017-09-05T06:35:31.750Z,2015
2017-09-05T06:40:37.825Z,2378
2017-09-05T06:45:43.562Z,2712
2017-09-05T06:50:49.338Z,2978
2017-09-05T06:55:54.710Z,3142
2017-09-05T07:00:59.785Z,3573
2017-09-05T07:06:05.196Z,4083
2017-09-05T07:11:09.595Z,4388
2017-09-05T07:16:14.333Z,5101
2017-09-05T07:21:19.075Z,5475
2017-09-05T07:26:24.149Z,5874
2017-09-05T07:31:29.227Z,6505
2017-09-05T07:36:34.640Z,6879
2017-09-05T07:41:39.386Z,7600
2017-09-05T07:46:45.128Z,7611
2017-09-05T07:51:50.212Z,6906
2017-09-05T07:56:54.948Z,6581
2017-09-05T08:01:59.690Z,4805
2017-09-05T08:07:04.437Z,25008
2017-09-05T08:12:09.515Z,14944
2017-09-05T08:17:14.261Z,15206
2017-09-05T08:22:19.011Z,15224
2017-09-05T08:27:25.100Z,42136
2017-09-05T08:32:30.184Z,25160
2017-09-05T08:37:35.940Z,26864
2017-09-05T08:42:40.690Z,45128
2017-09-05T08:47:45.441Z,27088
2017-09-05T08:52:50.208Z,13870
2017-09-05T08:57:54.622Z,6998
2017-09-05T09:03:00.057Z,11611
2017-09-05T09:08:05.143Z,38744
2017-09-05T09:13:10.904Z,38416
2017-09-05T09:18:15.997Z,32672
2017-09-05T09:23:21.423Z,26720
2017-09-05T09:28:26.512Z,24248
2017-09-05T09:33:32.274Z,17744
2017-09-05T09:38:38.369Z,39160
2017-09-05T09:43:43.462Z,29896
2017-09-05T09:48:49.223Z,27160
2017-09-05T09:53:54.648Z,19744
2017-09-05T09:58:59.786Z,3977
2017-09-05T10:04:05.216Z,3409
2017-09-05T10:09:10.631Z,3502
2017-09-05T10:14:15.718Z,3499
2017-09-05T10:19:21.474Z,3300
2017-09-05T10:24:25.890Z,2822
2017-09-05T10:29:30.645Z,2592
2017-09-05T10:34:36.067Z,3199
2017-09-05T10:39:41.819Z,2651
2017-09-05T10:44:46.897Z,3058
2017-09-05T10:49:52.647Z,2183
2017-09-05T10:54:57.728Z,2130
2017-09-05T11:00:03.473Z,2603
2017-09-05T11:05:08.893Z,2046
2017-09-05T11:10:14.305Z,1860
2017-09-05T11:15:19.049Z,2147
2017-09-05T11:20:24.131Z,1827
2017-09-05T11:25:28.880Z,1828
2017-09-05T11:30:34.963Z,2393
2017-09-05T11:35:40.381Z,2497
2017-09-05T11:40:45.795Z,2215
2017-09-05T11:45:51.209Z,2073
2017-09-05T11:50:56.292Z,1939
2017-09-05T11:56:00.701Z,1747
2017-09-05T12:01:06.123Z,1399
2017-09-05T12:06:10.865Z,1342
2017-09-05T12:11:15.606Z,1341
2017-09-05T12:16:20.688Z,1668
2017-09-05T12:21:26.100Z,1669
2017-09-05T12:26:31.851Z,1739
2017-09-05T12:31:36.927Z,2130
2017-09-05T12:36:42.676Z,2381
2017-09-05T12:41:48.097Z,2526
2017-09-05T12:46:53.514Z,1609
2017-09-05T12:51:58.925Z,1475
2017-09-05T12:57:03.333Z,1337
2017-09-05T13:02:08.080Z,1292
2017-09-05T13:07:13.827Z,1134
2017-09-05T13:12:18.908Z,1129
2017-09-05T13:17:24.655Z,1360
2017-09-05T13:22:29.063Z,1111
2017-09-05T13:27:33.472Z,1154
2017-09-05T13:32:38.561Z,1064
2017-09-05T13:37:43.299Z,712
2017-09-05T13:42:48.051Z,587
2017-09-05T13:47:54.122Z,524
2017-09-05T13:52:58.860Z,327
2017-09-05T13:58:03.934Z,259
2017-09-05T14:03:09.349Z,256
2017-09-05T14:08:14.427Z,278
2017-09-05T14:13:20.183Z,449
2017-09-05T14:18:26.261Z,424
2017-09-05T14:23:31.002Z,403
2017-09-05T14:28:36.762Z,385
2017-09-05T14:33:41.847Z,333
2017-09-05T14:38:47.257Z,325
2017-09-05T14:43:53.019Z,412
2017-09-05T14:48:58.433Z,309
2017-09-05T14:54:03.521Z,339
2017-09-05T14:59:08.698Z,431
2017-09-05T15:04:14.797Z,497
2017-09-05T15:09:20.879Z,500
2017-09-05T15:14:25.615Z,585
2017-09-05T15:19:31.024Z,573
2017-09-05T15:24:36.840Z,474
2017-09-05T15:29:42.594Z,634
2017-09-05T15:34:47.673Z,346
2017-09-05T15:39:52.419Z,205
2017-09-05T15:44:58.165Z,274
2017-09-05T15:50:03.916Z,145
2017-09-05T15:55:08.995Z,183
2017-09-05T16:00:14.070Z,208
2017-09-05T16:05:19.484Z,216
2017-09-05T16:10:24.952Z,164
2017-09-05T16:15:30.051Z,125
2017-09-05T16:20:35.498Z,116
2017-09-05T16:25:41.281Z,159
2017-09-05T16:30:46.723Z,185
2017-09-05T16:35:52.151Z,157
2017-09-05T16:40:58.250Z,144
2017-09-05T16:46:04.090Z,162
2017-09-05T16:51:08.860Z,178
2017-09-05T16:56:14.400Z,144
2017-09-05T17:01:20.170Z,132
2017-09-05T17:06:25.047Z,137
2017-09-05T17:11:30.803Z,135
2017-09-05T17:16:36.336Z,132
2017-09-05T17:21:41.782Z,121
2017-09-05T17:26:47.216Z,87
2017-09-05T17:31:52.662Z,42
2017-09-05T17:36:57.760Z,29
2017-09-05T17:42:03.292Z,12
2017-09-05T17:47:09.081Z,7
2017-09-05T17:52:14.246Z,5
2017-09-05T17:57:19.360Z,4
2017-09-05T18:02:24.780Z,2
2017-09-05T18:07:30.222Z,1
2017-09-05T18:12:35.301Z,1
2017-09-05T18:17:41.078Z,0
2017-09-05T18:22:45.860Z,0
2017-09-05T18:27:50.619Z,0
2017-09-05T18:32:56.379Z,0
2017-09-05T18:38:01.484Z,0
2017-09-05T18:43:06.260Z,0
2017-09-05T18:48:11.718Z,0
2017-09-05T18:53:17.172Z,0
2017-09-05T18:58:22.967Z,0
2017-09-05T19:03:28.740Z,0
2017-09-05T19:08:33.541Z,0
2017-09-05T19:13:38.644Z,0
2017-09-05T19:18:44.103Z,0
2017-09-05T19:23:48.944Z,0
2017-09-05T19:28:54.064Z,0
2017-09-05T19:33:58.480Z,0
2017-09-05T19:39:03.295Z,0
2017-09-05T19:44:08.829Z,0
2017-09-05T19:49:13.951Z,0
2017-09-05T19:54:19.396Z,0
2017-09-05T19:59:25.482Z,0
2017-09-05T20:04:30.228Z,0
2017-09-05T20:09:35.982Z,0
2017-09-05T20:14:40.958Z,0
2017-09-05T20:19:46.392Z,0
2017-09-05T20:24:51.150Z,0
2017-09-05T20:29:55.923Z,0
2017-09-05T20:35:01.330Z,0
2017-09-05T20:40:06.744Z,0
2017-09-05T20:45:11.817Z,0
2017-09-05T20:50:16.894Z,0
2017-09-05T20:55:22.010Z,0
2017-09-05T21:00:27.393Z,0
2017-09-05T21:05:32.809Z,0
2017-09-05T21:10:38.558Z,0
2017-09-05T21:15:44.310Z,0
2017-09-05T21:20:49.394Z,0
2017-09-05T21:25:54.477Z,0
2017-09-05T21:30:59.552Z,0
2017-09-05T21:36:05.377Z,0
2017-09-05T21:41:11.133Z,0
2017-09-05T21:46:16.542Z,0
2017-09-05T21:51:21.627Z,0
2017-09-05T21:56:27.042Z,0
2017-09-05T22:01:31.786Z,0
2017-09-05T22:06:37.199Z,0
2017-09-05T22:11:41.937Z,0
2017-09-05T22:16:47.687Z,0
2017-09-05T22:21:53.087Z,0
2017-09-05T22:26:58.502Z,0
2017-09-05T22:32:03.896Z,0
2017-09-05T22:37:09.301Z,0
2017-09-05T22:42:14.035Z,0
2017-09-05T22:47:19.783Z,0
2017-09-05T22:52:25.864Z,0
2017-09-05T22:57:31.608Z,0
2017-09-05T23:02:37.016Z,0
2017-09-05T23:07:42.759Z,0
2017-09-05T23:12:48.498Z,0
2017-09-05T23:17:53.911Z,0
2017-09-05T23:22:59.313Z,0
2017-09-05T23:28:04.382Z,0
2017-09-05T23:33:10.126Z,0
2017-09-05T23:38:15.301Z,0
2017-09-05T23:43:20.709Z,0
2017-09-05T23:48:26.791Z,0
2017-09-05T23:53:31.861Z,0
2017-09-05T23:58:36.931Z,0
